Juan De La Cosa — ECJE — position and weather

sailwx.info

Track history (hours):
 
Tides and Currents Weather Stations Pressure Air Temp Water Temp Dewpoint Dewpoint Depression Visibility Wind Speed Wind Dir Waves Ship Positions

Juan De La Cosa

Last reported at 2014-Oct-24 16:33 UTC. Time now 2014-Oct-24 16:58 UTC.
Position N 45°05' W 001°49'.

Length 75 m; draft 4.5 m.

Type: Medical transport. MMSI: 224612000.

Date/timePositionNaut miles runAvg speedWind from/ knotsBaromVisibWave heightAir tempDewpointWater temp
2014-Oct-24 16:33N 45°05' W 001°49'6 5.9
2014-Oct-24 15:33N 45°04' W 001°40'2 2.2
2014-Oct-24 14:33N 45°04' W 001°37'5 4.5
2014-Oct-24 13:33N 45°04' W 001°31'4 4.3
2014-Oct-24 12:33N 45°01' W 001°27'1110.7
2014-Oct-24 11:33N 44°50' W 001°31'1111.1
2014-Oct-24 10:33N 44°40' W 001°38'1111.1
2014-Oct-24 09:33N 44°30' W 001°43'1111.1
2014-Oct-24 08:33N 44°19' W 001°46'1111.2
2014-Oct-24 07:33N 44°08' W 001°47'1111.3
2014-Oct-24 06:34N 43°57' W 001°47'9 8.8
2014-Oct-24 05:33N 43°48' W 001°47'9 4.7
2014-Oct-24 03:33N 43°39' W 001°49'8 5.9
2014-Oct-24 02:13N 43°46' W 001°45'0 0.4
2014-Oct-24 01:26N 43°46' W 001°45'4 4.6
2014-Oct-24 00:33N 43°42' W 001°46'40 3.8
2014-Oct-23 14:13N 44°21' W 001°40'31 6.0
2014-Oct-23 09:06N 43°50' W 001°40'13 2.7
2014-Oct-23 04:15N 44°04' W 001°40'23 1.5
2014-Oct-22 12:21N 44°27' W 001°41'5 6.1
2014-Oct-22 11:33N 44°22' W 001°41'19 6.1
2014-Oct-22 08:22N 44°03' W 001°42'19 0.6
2014-Oct-20 23:28N 44°21' W 001°40'5 5.6
2014-Oct-20 22:33N 44°26' W 001°43'9 8.1
2014-Oct-20 21:30N 44°25' W 001°55'8 8.4
2014-Oct-20 20:33N 44°18' W 002°01'5 2.1
2014-Oct-20 18:07N 44°15' W 002°06'1711.1
2014-Oct-20 16:33N 44°15' W 002°30'10 9.8
2014-Oct-20 15:33N 44°12' W 002°43'11 9.9
2014-Oct-20 14:28N 44°09' W 002°58'3110.0
2014-Oct-20 11:20N 43°46' W 003°28'910.9
2014-Oct-20 10:33N 43°40' W 003°35'1110.7
2014-Oct-20 09:33N 43°32' W 003°45'55 5.4
2014-Oct-19 23:25N 43°29' W 002°30'10 5.3
2014-Oct-19 21:28N 43°26' W 002°17'16 5.3
2014-Oct-19 18:30N 43°39' W 002°04'8 8.1
2014-Oct-19 17:32N 43°47' W 002°00'6 6.4
2014-Oct-19 16:33N 43°53' W 002°02'6 6.5
2014-Oct-19 15:33N 43°59' W 002°04'6 6.2
2014-Oct-19 14:34N 44°05' W 002°07'18 5.8
2014-Oct-19 11:23N 44°23' W 002°07'6 6.4
2014-Oct-19 10:28N 44°29' W 002°06'6 6.4
2014-Oct-19 09:33N 44°35' W 002°05'6 6.5
2014-Oct-19 08:33N 44°41' W 002°05'6 6.4
2014-Oct-19 07:33N 44°48' W 002°07'6 6.0
2014-Oct-19 06:33N 44°52' W 002°13'6 6.0
2014-Oct-19 05:33N 44°56' W 002°19'6 6.2
2014-Oct-19 04:33N 45°01' W 002°24'6 6.5
2014-Oct-19 03:33N 45°03' W 002°33'7 6.7
2014-Oct-19 02:33N 45°06' W 002°41'7 6.6
2014-Oct-19 01:33N 45°08' W 002°50'6 6.4
2014-Oct-19 00:34N 45°10' W 002°59'6 6.0
2014-Oct-18 23:33N 45°15' W 003°04'6 6.1
2014-Oct-18 22:33N 45°20' W 003°08'6 6.4
2014-Oct-18 21:33N 45°26' W 003°13'7 6.8
2014-Oct-18 20:32N 45°31' W 003°19'44 2.5
2014-Oct-18 03:15N 45°30' W 002°17'4 6.4
2014-Oct-18 02:33N 45°26' W 002°14'6 6.3
2014-Oct-18 01:33N 45°21' W 002°09'6 6.3
2014-Oct-18 00:33N 45°15' W 002°05'25 6.2
2014-Oct-17 20:33N 44°51' W 001°55'15 5.9
2014-Oct-17 18:04N 44°37' W 001°53'3 5.8
2014-Oct-17 17:33N 44°34' W 001°53'6 5.8
2014-Oct-17 16:33N 44°28' W 001°52'6 5.8
2014-Oct-17 15:31N 44°22' W 001°52'6 4.4
2014-Oct-17 14:04N 44°17' W 001°46'4 5.8
2014-Oct-17 13:20N 44°13' W 001°46'38 2.6
2014-Oct-16 22:24N 43°35' W 001°49'10 3.4
2014-Oct-16 19:18N 43°40' W 002°01'6 8.3
2014-Oct-16 18:33N 43°36' W 002°07'45 5.0
2014-Oct-16 09:32N 44°20' W 002°01'1111.4
2014-Oct-16 08:33N 44°31' W 001°56'1211.5
2014-Oct-16 07:33N 44°42' W 001°52'1111.2
2014-Oct-16 06:33N 44°53' W 001°50'1111.2
2014-Oct-16 05:33N 45°04' W 001°50'8 8.1
2014-Oct-16 04:33N 45°13' W 001°50'21 2.4
2014-Oct-15 19:30N 44°52' W 001°43'8 8.4
2014-Oct-15 18:32N 44°44' W 001°43'8 8.0
2014-Oct-15 17:33N 44°36' W 001°42'8 8.0
2014-Oct-15 16:33N 44°28' W 001°41'8 8.2
2014-Oct-15 15:33N 44°20' W 001°39'18 2.3
2014-Oct-15 07:26N 44°01' W 001°43'1 1.1
2014-Oct-15 06:31N 44°00' W 001°43'3 0.6
2014-Oct-15 02:20N 43°58' W 001°44'  
Track history (hours):
 
Tides and Currents Weather Stations Pressure Air Temp Water Temp Dewpoint Dewpoint Depression Visibility Wind Speed Wind Dir Waves Ship Positions

Juan De La Cosa

Last reported at 2014-Oct-24 16:33 UTC. Time now 2014-Oct-24 16:58 UTC.
Position N 45°05' W 001°49'.

Length 75 m; draft 4.5 m.

Type: Medical transport. MMSI: 224612000.

Date/timePositionNaut miles runAvg speedWind from/ knotsBaromVisibWave heightAir tempDewpointWater temp
2014-Oct-24 16:33N 45°05' W 001°49'6 5.9
2014-Oct-24 15:33N 45°04' W 001°40'2 2.2
2014-Oct-24 14:33N 45°04' W 001°37'5 4.5
2014-Oct-24 13:33N 45°04' W 001°31'4 4.3
2014-Oct-24 12:33N 45°01' W 001°27'1110.7
2014-Oct-24 11:33N 44°50' W 001°31'1111.1
2014-Oct-24 10:33N 44°40' W 001°38'1111.1
2014-Oct-24 09:33N 44°30' W 001°43'1111.1
2014-Oct-24 08:33N 44°19' W 001°46'1111.2
2014-Oct-24 07:33N 44°08' W 001°47'1111.3
2014-Oct-24 06:34N 43°57' W 001°47'9 8.8
2014-Oct-24 05:33N 43°48' W 001°47'9 4.7
2014-Oct-24 03:33N 43°39' W 001°49'8 5.9
2014-Oct-24 02:13N 43°46' W 001°45'0 0.4
2014-Oct-24 01:26N 43°46' W 001°45'4 4.6
2014-Oct-24 00:33N 43°42' W 001°46'40 3.8
2014-Oct-23 14:13N 44°21' W 001°40'31 6.0
2014-Oct-23 09:06N 43°50' W 001°40'13 2.7
2014-Oct-23 04:15N 44°04' W 001°40'23 1.5
2014-Oct-22 12:21N 44°27' W 001°41'5 6.1
2014-Oct-22 11:33N 44°22' W 001°41'19 6.1
2014-Oct-22 08:22N 44°03' W 001°42'19 0.6
2014-Oct-20 23:28N 44°21' W 001°40'5 5.6
2014-Oct-20 22:33N 44°26' W 001°43'9 8.1
2014-Oct-20 21:30N 44°25' W 001°55'8 8.4
2014-Oct-20 20:33N 44°18' W 002°01'5 2.1
2014-Oct-20 18:07N 44°15' W 002°06'1711.1
2014-Oct-20 16:33N 44°15' W 002°30'10 9.8
2014-Oct-20 15:33N 44°12' W 002°43'11 9.9
2014-Oct-20 14:28N 44°09' W 002°58'3110.0
2014-Oct-20 11:20N 43°46' W 003°28'910.9
2014-Oct-20 10:33N 43°40' W 003°35'1110.7
2014-Oct-20 09:33N 43°32' W 003°45'55 5.4
2014-Oct-19 23:25N 43°29' W 002°30'10 5.3
2014-Oct-19 21:28N 43°26' W 002°17'16 5.3
2014-Oct-19 18:30N 43°39' W 002°04'8 8.1
2014-Oct-19 17:32N 43°47' W 002°00'6 6.4
2014-Oct-19 16:33N 43°53' W 002°02'6 6.5
2014-Oct-19 15:33N 43°59' W 002°04'6 6.2
2014-Oct-19 14:34N 44°05' W 002°07'18 5.8
2014-Oct-19 11:23N 44°23' W 002°07'6 6.4
2014-Oct-19 10:28N 44°29' W 002°06'6 6.4
2014-Oct-19 09:33N 44°35' W 002°05'6 6.5
2014-Oct-19 08:33N 44°41' W 002°05'6 6.4
2014-Oct-19 07:33N 44°48' W 002°07'6 6.0
2014-Oct-19 06:33N 44°52' W 002°13'6 6.0
2014-Oct-19 05:33N 44°56' W 002°19'6 6.2
2014-Oct-19 04:33N 45°01' W 002°24'6 6.5
2014-Oct-19 03:33N 45°03' W 002°33'7 6.7
2014-Oct-19 02:33N 45°06' W 002°41'7 6.6
2014-Oct-19 01:33N 45°08' W 002°50'6 6.4
2014-Oct-19 00:34N 45°10' W 002°59'6 6.0
2014-Oct-18 23:33N 45°15' W 003°04'6 6.1
2014-Oct-18 22:33N 45°20' W 003°08'6 6.4
2014-Oct-18 21:33N 45°26' W 003°13'7 6.8
2014-Oct-18 20:32N 45°31' W 003°19'44 2.5
2014-Oct-18 03:15N 45°30' W 002°17'4 6.4
2014-Oct-18 02:33N 45°26' W 002°14'6 6.3
2014-Oct-18 01:33N 45°21' W 002°09'6 6.3
2014-Oct-18 00:33N 45°15' W 002°05'25 6.2
2014-Oct-17 20:33N 44°51' W 001°55'15 5.9
2014-Oct-17 18:04N 44°37' W 001°53'3 5.8
2014-Oct-17 17:33N 44°34' W 001°53'6 5.8
2014-Oct-17 16:33N 44°28' W 001°52'6 5.8
2014-Oct-17 15:31N 44°22' W 001°52'6 4.4
2014-Oct-17 14:04N 44°17' W 001°46'4 5.8
2014-Oct-17 13:20N 44°13' W 001°46'38 2.6
2014-Oct-16 22:24N 43°35' W 001°49'10 3.4
2014-Oct-16 19:18N 43°40' W 002°01'6 8.3
2014-Oct-16 18:33N 43°36' W 002°07'45 5.0
2014-Oct-16 09:32N 44°20' W 002°01'1111.4
2014-Oct-16 08:33N 44°31' W 001°56'1211.5
2014-Oct-16 07:33N 44°42' W 001°52'1111.2
2014-Oct-16 06:33N 44°53' W 001°50'1111.2
2014-Oct-16 05:33N 45°04' W 001°50'8 8.1
2014-Oct-16 04:33N 45°13' W 001°50'21 2.4
2014-Oct-15 19:30N 44°52' W 001°43'8 8.4
2014-Oct-15 18:32N 44°44' W 001°43'8 8.0
2014-Oct-15 17:33N 44°36' W 001°42'8 8.0
2014-Oct-15 16:33N 44°28' W 001°41'8 8.2
2014-Oct-15 15:33N 44°20' W 001°39'18 2.3
2014-Oct-15 07:26N 44°01' W 001°43'1 1.1
2014-Oct-15 06:31N 44°00' W 001°43'3 0.6
2014-Oct-15 02:20N 43°58' W 001°44'  

Dump ship's entire track history